Language selection

My Weather Profile Weather Topics  | 

Hecate Strait - northern half: Past 24 Hour Conditions

 

Sandspit Airport

01:00 PM PDT 17 June 2021
Disclaimer

This table is a summary of hourly weather conditions for the past 24 hours.
Please note that these observations might not always be representative of weather conditions over their associated marine area.

Date / Time
(PDT)
Wind(knots) Conditions Visibility(km) Pressure(kPa) Air tempC) Relative humidity(%) Dew pointC)
17 June 2021
13:00 ESE 6 Cloudy 16 102.0 13 82 10
12:00 W 6 Cloudy 16 101.9 13 83 10
11:00 W 10 Cloudy 16 101.9 13 87 10
10:00 W 9 Rain 6 101.9 11 96 10
9:00 SE 14 Light Rain 13 101.8 11 98 11
8:00 SE 15 Light Rain 11 101.8 11 98 11
7:00 SE 18 Cloudy 15 101.8 11 98 11
6:00 SE 17 Light Rain 13 101.8 11 97 11
5:00 SE 19 gust 27 Light Rain 11 101.9 11 97 11
4:00 SE 18 gust 25 Light Rain 5 101.9 11 96 10
3:00 SE 21 gust 27 Cloudy 15 101.9 11 95 10
2:00 SE 19 gust 24 Cloudy 16 102.0 11 96 11
1:00 SE 22 gust 30 Cloudy 16 102.0 12 93 11
0:00 SE 17 gust 24 Cloudy 16 102.1 12 93 11
16 June 2021
23:00 SE 21 gust 26 Light Rain 8 102.1 11 94 10
22:00 SE 17 gust 24 Cloudy 16 102.2 12 91 10
21:00 SE 18 gust 23 Cloudy 16 102.2 12 91 10
20:00 SE 19 gust 25 Cloudy 16 102.2 12 91 10
19:00 SE 21 gust 27 Cloudy 16 102.3 12 89 11
18:00 SE 21 Cloudy 16 102.4 13 88 11
17:00 SE 20 gust 28 Cloudy 16 102.4 13 87 11
16:00 SE 19 gust 26 Mostly Cloudy 16 102.5 13 89 11
15:00 SE 20 gust 25 Sunny 16 102.5 14 86 11
14:00 SE 22 gust 27 N/A 16 102.5 14 85 12
13:00 N/A N/A N/A N/A N/A N/A N/A

Zoom-in to make a selection

Map of Pacific - North Coast marine weather areas Middle Nomad - 46004 South Nomad - 46036 Dixon Entrance Central - 46145 South Moresby - 46147 Nanakwa Shoal - 46181 North Hecate Strait - 46183 North Nomad - 46184 South Hecate Strait - 46185 West Sea Otter - 46204 West Dixon Entrance - 46205 East Dellwood - 46207 West Moresby - 46208 Sartine Island Cape St.James Kindakun Rocks Langara Island Masset Municipal Airport Rose Spit Sandspit Airport Bella Bella Airport Bella Coola Airport Bonilla Island Cathedral Point Cumshewa Island Grey Islet Holland Rock Lucy Islands Lightstation Prince Rupert Airport
Legend:
buoy Buoy
land station Land Station

Pacific - North Coast Area

Another Region

What we are doing

Date modified: